Sea Cloud II — 9HUE6 — position and weather

sailwx.info

Track history (hours):
 
Tides and Currents Weather Stations Pressure Air Temp Water Temp Dewpoint Dewpoint Depression Visibility Wind Speed Wind Dir Waves Ship Positions

Sea Cloud II

Ship's website: http://www.seacloud.com/en/the-ships/sea-cloud-ii.html

Last reported at 2019-Jul-16 10:27 UTC. Time now 2019-Jul-16 10:55 UTC.
Position N 55°59' W 003°11'.

Length 117 m; draft 6 m.

Type: Passenger vessel. MMSI: 248953000.

Date/timePositionNaut miles runAvg speedWind from/ knotsBaromVisibWave heightAir tempDewpointWater temp
2019-Jul-16 10:27N 55°59' W 003°11'0 0.0
2019-Jul-16 09:57N 55°59' W 003°11'0 0.0
2019-Jul-16 09:27N 55°59' W 003°11'0 0.0
2019-Jul-16 09:00N 55°59' W 003°11'0 0.0
2019-Jul-16 08:27N 55°59' W 003°11'0 0.0
2019-Jul-16 07:51N 55°59' W 003°11'0 0.0
2019-Jul-16 07:27N 55°59' W 003°11'0 0.0
2019-Jul-16 06:57N 55°59' W 003°11'0 0.0
2019-Jul-16 06:27N 55°59' W 003°11'0 0.0
2019-Jul-16 06:00N 55°59' W 003°11'0 0.0
2019-Jul-16 05:27N 55°59' W 003°11'0 0.0
2019-Jul-16 05:00N 55°59' W 003°11'0 0.0
2019-Jul-16 04:27N 55°59' W 003°11'0 0.0
2019-Jul-16 04:00N 55°59' W 003°11'0 0.0
2019-Jul-16 03:30N 55°59' W 003°11'0 0.0
2019-Jul-16 02:57N 55°59' W 003°11'0 0.0
2019-Jul-16 02:27N 55°59' W 003°11'0 0.0
2019-Jul-16 02:00N 55°59' W 003°11'0 0.0
2019-Jul-16 01:30N 55°59' W 003°11'0 0.4
2019-Jul-16 01:00N 55°59' W 003°11'0 0.4
2019-Jul-16 00:30N 55°59' W 003°11'1 2.4
2019-Jul-15 23:57N 56°00' W 003°10'3 6.9
2019-Jul-15 23:30N 56°02' W 003°05'3 6.9
2019-Jul-15 23:00N 56°03' W 002°59'3 5.1
2019-Jul-15 22:30N 56°04' W 002°55'3 6.5
2019-Jul-15 22:00N 56°06' W 002°50'3 6.6
2019-Jul-15 21:30N 56°07' W 002°44'4 7.0
2019-Jul-15 21:00N 56°08' W 002°38'4 8.3
2019-Jul-15 20:30N 56°09' W 002°31'6 9.9
2019-Jul-15 19:54N 56°14' W 002°26'410.3
2019-Jul-15 19:30N 56°17' W 002°21'510.2
2019-Jul-15 19:00N 56°21' W 002°15'810.1
2019-Jul-15 18:11N 56°28' W 002°07'210.3
2019-Jul-15 17:58N 56°30' W 002°07'3410.5
2019-Jul-15 14:43N 57°04' W 002°04'1 4.0
2019-Jul-15 14:30N 57°05' W 002°03'2 4.7
2019-Jul-15 14:00N 57°06' W 001°60'2 4.2
2019-Jul-15 13:30N 57°08' W 001°58'4 7.2
2019-Jul-15 13:00N 57°08' W 002°04'1 1.3
2019-Jul-15 12:30N 57°09' W 002°05'0 0.0
2019-Jul-15 11:59N 57°09' W 002°05'0 0.0
2019-Jul-15 11:29N 57°09' W 002°05'0 0.0
2019-Jul-15 10:55N 57°09' W 002°05'0 0.0
2019-Jul-15 10:28N 57°09' W 002°05'0 0.0
2019-Jul-15 09:58N 57°09' W 002°05'0 0.0
2019-Jul-15 09:28N 57°09' W 002°05'0 0.0
2019-Jul-15 08:55N 57°09' W 002°05'0 0.0
2019-Jul-15 08:28N 57°09' W 002°05'0 0.0
2019-Jul-15 07:58N 57°09' W 002°05'0 0.0
2019-Jul-15 07:28N 57°09' W 002°05'0 0.3
2019-Jul-15 07:00N 57°09' W 002°05'2 3.9
2019-Jul-15 06:31N 57°10' W 002°02'0 0.3
2019-Jul-15 06:01N 57°09' W 002°02'3 5.4
2019-Jul-15 05:30N 57°11' W 001°58'3 6.0
2019-Jul-15 05:01N 57°12' W 001°53'4 6.7
2019-Jul-15 04:29N 57°15' W 001°49'4 8.5
2019-Jul-15 04:00N 57°19' W 001°46'4 8.9
2019-Jul-15 03:31N 57°23' W 001°44'5 9.3
2019-Jul-15 03:01N 57°27' W 001°41'4 7.3
2019-Jul-15 02:31N 57°31' W 001°39'4 7.8
2019-Jul-15 02:00N 57°35' W 001°40'4 8.0
2019-Jul-15 01:30N 57°39' W 001°42'64 2.3
2019-Jul-13 21:25N 58°31' W 002°52'510.3
2019-Jul-13 20:58N 58°35' W 002°48'4 9.7
2019-Jul-13 20:30N 58°39' W 002°44'1010.8
2019-Jul-13 19:34N 58°49' W 002°36'111.7
2019-Jul-13 19:29N 58°49' W 002°36'910.5
2019-Jul-13 18:37N 58°59' W 002°37'212.1
2019-Jul-13 18:28N 58°59' W 002°40'611.7
2019-Jul-13 18:00N 59°01' W 002°50'4 7.8
2019-Jul-13 17:30N 58°60' W 002°58'0 0.6
2019-Jul-13 16:58N 59°00' W 002°58'0 0.0
2019-Jul-13 16:28N 59°00' W 002°58'0 0.0
2019-Jul-13 15:58N 59°00' W 002°58'0 0.0
2019-Jul-13 15:28N 59°00' W 002°58'0 0.0
2019-Jul-13 14:58N 59°00' W 002°58'0 0.0
2019-Jul-13 14:28N 59°00' W 002°58'0 0.0
2019-Jul-13 13:58N 59°00' W 002°58'0 0.0
2019-Jul-13 13:28N 59°00' W 002°58'0 0.0
2019-Jul-13 12:58N 59°00' W 002°58'0 0.0
2019-Jul-13 12:28N 59°00' W 002°58'0 0.0
2019-Jul-13 11:58N 59°00' W 002°58'1 1.3
2019-Jul-13 11:30N 59°00' W 002°57'4 7.6
2019-Jul-13 10:59N 59°01' W 002°50'3 5.8
2019-Jul-13 10:30N 59°02' W 002°45'4 8.2
2019-Jul-13 10:00N 59°06' W 002°46'4 7.6
2019-Jul-13 09:30N 59°09' W 002°50'3 5.7
2019-Jul-13 09:00N 59°11' W 002°53'4 7.0
2019-Jul-13 08:30N 59°13' W 002°59'4 7.1
2019-Jul-13 08:00N 59°14' W 003°06'3 5.9
2019-Jul-13 07:30N 59°13' W 003°11'3 5.8
2019-Jul-13 07:00N 59°13' W 003°17'3 6.1
2019-Jul-13 06:26N 59°11' W 003°23'3 7.2
2019-Jul-13 05:59N 59°10' W 003°28'3 7.0
2019-Jul-13 05:30N 59°08' W 003°34'3 7.0
2019-Jul-13 05:00N 59°06' W 003°40'4 7.1
2019-Jul-13 04:30N 59°04' W 003°46'4 7.7
2019-Jul-13 04:00N 59°02' W 003°52'5 9.8
2019-Jul-13 03:30N 59°00' W 004°01'611.0
2019-Jul-13 03:00N 58°57' W 004°10'510.9
2019-Jul-13 02:30N 58°54' W 004°19'510.8
2019-Jul-13 02:00N 58°52' W 004°28'73 5.1
2019-Jul-12 11:40N 57°49' W 005°39'122 3.6
2019-Jul-11 01:36N 55°51' W 006°39'0 3.4
2019-Jul-11 01:30N 55°51' W 006°39'2 3.7
2019-Jul-11 01:01N 55°49' W 006°40'2 4.1
2019-Jul-11 00:28N 55°47' W 006°40'2 4.7
2019-Jul-11 00:00N 55°45' W 006°41'3 5.1
2019-Jul-10 23:31N 55°42' W 006°42'3 5.3
2019-Jul-10 23:00N 55°40' W 006°43'3 5.2
2019-Jul-10 22:30N 55°37' W 006°44'3 5.0
2019-Jul-10 22:00N 55°35' W 006°45'2 4.9
2019-Jul-10 21:30N 55°32' W 006°46'3 4.8
2019-Jul-10 20:58N 55°30' W 006°47'3 4.6
2019-Jul-10 20:24N 55°27' W 006°48'2 5.3
2019-Jul-10 19:56N 55°25' W 006°49'5 5.0
2019-Jul-10 18:53N 55°20' W 006°51'3 5.0
2019-Jul-10 18:22N 55°17' W 006°51'2 0.1
2019-Jul-10 05:24N 55°15' W 006°50'3 6.0
2019-Jul-10 04:56N 55°17' W 006°46'2 3.8
2019-Jul-10 04:31N 55°17' W 006°43'3 5.0
2019-Jul-10 04:01N 55°18' W 006°39'3 6.3
2019-Jul-10 03:30N 55°20' W 006°34'3 6.2
2019-Jul-10 03:01N 55°21' W 006°30'3 5.4
2019-Jul-10 02:30N 55°23' W 006°25'3 5.5
2019-Jul-10 02:00N 55°24' W 006°21'3 5.6
2019-Jul-10 01:30N 55°25' W 006°16'3 5.5
2019-Jul-10 01:00N 55°25' W 006°12'3 5.8
2019-Jul-10 00:30N 55°25' W 006°07'3 5.7
2019-Jul-10 00:00N 55°23' W 006°02'3 6.5
2019-Jul-09 23:30N 55°21' W 005°59'4 7.3
2019-Jul-09 23:00N 55°18' W 005°55'4 7.7
2019-Jul-09 22:30N 55°14' W 005°51'4 8.2
2019-Jul-09 22:00N 55°11' W 005°48'4 8.2
2019-Jul-09 21:30N 55°07' W 005°45'3 5.8
2019-Jul-09 20:59N 55°05' W 005°42'14 7.8
2019-Jul-09 19:10N 54°51' W 005°35'1 8.7
2019-Jul-09 19:00N 54°49' W 005°35'4 8.2
2019-Jul-09 18:30N 54°45' W 005°37'510.4
2019-Jul-09 18:01N 54°42' W 005°43'510.6
2019-Jul-09 17:30N 54°39' W 005°51'3 6.3
2019-Jul-09 16:58N 54°37' W 005°55'0 0.0
2019-Jul-09 16:26N 54°37' W 005°55'0 0.0
2019-Jul-09 15:58N 54°37' W 005°55'0 0.0
2019-Jul-09 15:29N 54°37' W 005°55'0 0.0
2019-Jul-09 14:58N 54°37' W 005°55'0 0.0
2019-Jul-09 14:28N 54°37' W 005°55'0 0.0
2019-Jul-09 13:58N 54°37' W 005°55'0 0.0
2019-Jul-09 13:28N 54°37' W 005°55'0 0.0
2019-Jul-09 12:58N 54°37' W 005°55'0 0.0
2019-Jul-09 12:28N 54°37' W 005°55'0 0.0
2019-Jul-09 11:58N 54°37' W 005°55'0 0.0
2019-Jul-09 11:28N 54°37' W 005°55'0 0.0
2019-Jul-09 10:55N 54°37' W 005°55'0 0.0
2019-Jul-09 10:28N 54°37' W 005°55'0 0.0
2019-Jul-09 09:58N 54°37' W 005°55'0 0.0
2019-Jul-09 09:28N 54°37' W 005°55'0 0.0
2019-Jul-09 08:58N 54°37' W 005°55'0 0.0
2019-Jul-09 08:28N 54°37' W 005°55'0 0.0
2019-Jul-09 07:58N 54°37' W 005°55'0 0.0
2019-Jul-09 07:28N 54°37' W 005°55'0 0.0
2019-Jul-09 06:58N 54°37' W 005°55'0 0.0
2019-Jul-09 06:28N 54°37' W 005°55'0 0.0
2019-Jul-09 05:58N 54°37' W 005°55'0 0.0
2019-Jul-09 05:28N 54°37' W 005°55'0 0.0
2019-Jul-09 04:58N 54°37' W 005°55'0 0.0
2019-Jul-09 04:28N 54°37' W 005°55'0 0.0
2019-Jul-09 03:58N 54°37' W 005°55'0 0.0
2019-Jul-09 03:28N 54°37' W 005°55'0 0.0
2019-Jul-09 02:58N 54°37' W 005°55'0 0.0
2019-Jul-09 02:28N 54°37' W 005°55'0 0.0
2019-Jul-09 01:58N 54°37' W 005°55'0 0.0
2019-Jul-09 01:28N 54°37' W 005°55'0 0.0
2019-Jul-09 00:58N 54°37' W 005°55'0 0.0
2019-Jul-09 00:28N 54°37' W 005°55'0 0.0
2019-Jul-08 23:58N 54°37' W 005°55'0 0.0
2019-Jul-08 23:28N 54°37' W 005°55'0 0.0
2019-Jul-08 22:58N 54°37' W 005°55'0 0.0
2019-Jul-08 22:28N 54°37' W 005°55'0 0.0
2019-Jul-08 21:58N 54°37' W 005°55'0 0.0
2019-Jul-08 21:28N 54°37' W 005°55'0 0.0
2019-Jul-08 20:58N 54°37' W 005°55'0 0.0
2019-Jul-08 20:28N 54°37' W 005°55'0 0.0
2019-Jul-08 19:58N 54°37' W 005°55'0 0.0
2019-Jul-08 19:28N 54°37' W 005°55'0 0.0
2019-Jul-08 18:58N 54°37' W 005°55'0 0.0
2019-Jul-08 18:28N 54°37' W 005°55'0 0.0
2019-Jul-08 17:58N 54°37' W 005°55'0 0.0
2019-Jul-08 17:28N 54°37' W 005°55'0 0.0
2019-Jul-08 16:58N 54°37' W 005°55'0 0.0
2019-Jul-08 16:28N 54°37' W 005°55'0 0.0
2019-Jul-08 15:58N 54°37' W 005°55'0 0.0
2019-Jul-08 15:28N 54°37' W 005°55'0 0.0
2019-Jul-08 14:58N 54°37' W 005°55'0 0.0
2019-Jul-08 14:28N 54°37' W 005°55'0 0.0
2019-Jul-08 13:58N 54°37' W 005°55'0 0.0
2019-Jul-08 13:28N 54°37' W 005°55'0 0.0
2019-Jul-08 12:58N 54°37' W 005°55'0 0.0
2019-Jul-08 12:28N 54°37' W 005°55'0 0.0
2019-Jul-08 11:58N 54°37' W 005°55'0 0.0
2019-Jul-08 11:28N 54°37' W 005°55'0 0.0
2019-Jul-08 10:58N 54°37' W 005°55'0 0.0
2019-Jul-08 10:28N 54°37' W 005°55'0 0.0
2019-Jul-08 09:58N 54°37' W 005°55'0 0.0
2019-Jul-08 09:28N 54°37' W 005°55'0 0.0
2019-Jul-08 08:58N 54°37' W 005°55'0 0.0
2019-Jul-08 08:28N 54°37' W 005°55'0 0.0
2019-Jul-08 07:58N 54°37' W 005°55'0 0.0
2019-Jul-08 07:28N 54°37' W 005°55'0 0.4
2019-Jul-08 07:01N 54°37' W 005°55'3 4.9
2019-Jul-08 06:29N 54°39' W 005°52'510.2
2019-Jul-08 06:00N 54°42' W 005°45'4 8.2
2019-Jul-08 05:31N 54°43' W 005°38'3 5.6
2019-Jul-08 05:01N 54°43' W 005°34'3 5.6
2019-Jul-08 04:30N 54°43' W 005°29'3 6.2
2019-Jul-08 04:01N 54°41' W 005°26'3 6.5
2019-Jul-08 03:31N 54°37' W 005°24'3 6.5
2019-Jul-08 03:00N 54°34' W 005°23'4 7.7
2019-Jul-08 02:30N 54°31' W 005°21'5 9.7
2019-Jul-08 02:01N 54°26' W 005°20'5 9.3
2019-Jul-08 01:30N 54°21' W 005°21'510.0
2019-Jul-08 01:01N 54°17' W 005°23'510.1
2019-Jul-08 00:31N 54°12' W 005°27'510.4
2019-Jul-08 00:01N 54°07' W 005°30'610.6
2019-Jul-07 23:25N 54°01' W 005°33'510.7
2019-Jul-07 22:56N 53°56' W 005°36'510.6
2019-Jul-07 22:30N 53°52' W 005°38'610.0
2019-Jul-07 21:54N 53°46' W 005°41'22 7.2
2019-Jul-07 18:46N 53°25' W 005°56'3 6.4
2019-Jul-07 18:19N 53°23' W 005°58'3 6.4
2019-Jul-07 17:54N 53°21' W 006°01'2 6.3
2019-Jul-07 17:31N 53°20' W 006°05'4 8.7
2019-Jul-07 17:00N 53°21' W 006°12'1 0.9
2019-Jul-07 16:12N 53°21' W 006°14'0 0.0
2019-Jul-07 16:00N 53°21' W 006°14'0 0.0
2019-Jul-07 15:30N 53°21' W 006°14'0 0.0
2019-Jul-07 15:00N 53°21' W 006°14'0 0.0
2019-Jul-07 14:30N 53°21' W 006°14'0 0.0
2019-Jul-07 13:57N 53°21' W 006°14'0 0.0
2019-Jul-07 13:21N 53°21' W 006°14'0 0.0
2019-Jul-07 12:45N 53°21' W 006°14'0 0.0
2019-Jul-07 12:30N 53°21' W 006°14'0 0.0
2019-Jul-07 12:00N 53°21' W 006°14'0 0.0
2019-Jul-07 11:27N 53°21' W 006°14'0 0.0
2019-Jul-07 10:54N 53°21' W 006°14'0 0.0
2019-Jul-07 10:24N 53°21' W 006°14'0 0.0
2019-Jul-07 09:54N 53°21' W 006°14'0 0.0
2019-Jul-07 09:18N 53°21' W 006°14'0 0.0
2019-Jul-07 08:45N 53°21' W 006°14'0 0.0
2019-Jul-07 08:30N 53°21' W 006°14'0 0.0
2019-Jul-07 08:00N 53°21' W 006°14'0 0.0
2019-Jul-07 07:30N 53°21' W 006°14'0 0.0
2019-Jul-07 07:00N 53°21' W 006°14'0 0.0
2019-Jul-07 06:24N 53°21' W 006°14'0 0.5
2019-Jul-07 06:00N 53°21' W 006°13'1 2.2
2019-Jul-07 05:30N 53°21' W 006°11'5 9.2
2019-Jul-07 05:00N 53°20' W 006°03'5 6.3
2019-Jul-07 04:14N 53°24' W 005°58'1 5.5
2019-Jul-07 04:00N 53°25' W 005°56'56 8.5
2019-Jul-06 21:21N 54°18' W 005°23'4 8.6
2019-Jul-06 20:55N 54°21' W 005°21'4 8.3
2019-Jul-06 20:28N 54°25' W 005°20'4 8.7
2019-Jul-06 20:00N 54°29' W 005°21'4 8.3
2019-Jul-06 19:30N 54°33' W 005°23'4 7.5
2019-Jul-06 19:00N 54°37' W 005°24'3 7.1
2019-Jul-06 18:30N 54°40' W 005°25'3 6.4
2019-Jul-06 18:00N 54°43' W 005°28'4 7.6
2019-Jul-06 17:30N 54°43' W 005°35'4 7.2
2019-Jul-06 17:00N 54°42' W 005°41'4 7.8
2019-Jul-06 16:30N 54°41' W 005°48'5 9.6
2019-Jul-06 16:00N 54°38' W 005°53'0 0.1
2019-Jul-06 15:29N 54°38' W 005°53'0 0.0
2019-Jul-06 14:59N 54°38' W 005°53'0 0.0
2019-Jul-06 14:29N 54°38' W 005°53'0 0.0
2019-Jul-06 13:59N 54°38' W 005°53'0 0.0
2019-Jul-06 13:30N 54°38' W 005°53'0 0.0
2019-Jul-06 12:59N 54°38' W 005°53'0 0.0
2019-Jul-06 12:29N 54°38' W 005°53'0 0.0
2019-Jul-06 11:59N 54°38' W 005°53'0 0.0
2019-Jul-06 11:29N 54°38' W 005°53'0 0.0
2019-Jul-06 10:59N 54°38' W 005°53'0 0.0
2019-Jul-06 10:29N 54°38' W 005°53'  
Track history (hours):
 
Tides and Currents Weather Stations Pressure Air Temp Water Temp Dewpoint Dewpoint Depression Visibility Wind Speed Wind Dir Waves Ship Positions

Sea Cloud II

Ship's website: http://www.seacloud.com/en/the-ships/sea-cloud-ii.html

Last reported at 2019-Jul-16 10:27 UTC. Time now 2019-Jul-16 10:55 UTC.
Position N 55°59' W 003°11'.

Length 117 m; draft 6 m.

Type: Passenger vessel. MMSI: 248953000.

Date/timePositionNaut miles runAvg speedWind from/ knotsBaromVisibWave heightAir tempDewpointWater temp
2019-Jul-16 10:27N 55°59' W 003°11'0 0.0
2019-Jul-16 09:57N 55°59' W 003°11'0 0.0
2019-Jul-16 09:27N 55°59' W 003°11'0 0.0
2019-Jul-16 09:00N 55°59' W 003°11'0 0.0
2019-Jul-16 08:27N 55°59' W 003°11'0 0.0
2019-Jul-16 07:51N 55°59' W 003°11'0 0.0
2019-Jul-16 07:27N 55°59' W 003°11'0 0.0
2019-Jul-16 06:57N 55°59' W 003°11'0 0.0
2019-Jul-16 06:27N 55°59' W 003°11'0 0.0
2019-Jul-16 06:00N 55°59' W 003°11'0 0.0
2019-Jul-16 05:27N 55°59' W 003°11'0 0.0
2019-Jul-16 05:00N 55°59' W 003°11'0 0.0
2019-Jul-16 04:27N 55°59' W 003°11'0 0.0
2019-Jul-16 04:00N 55°59' W 003°11'0 0.0
2019-Jul-16 03:30N 55°59' W 003°11'0 0.0
2019-Jul-16 02:57N 55°59' W 003°11'0 0.0
2019-Jul-16 02:27N 55°59' W 003°11'0 0.0
2019-Jul-16 02:00N 55°59' W 003°11'0 0.0
2019-Jul-16 01:30N 55°59' W 003°11'0 0.4
2019-Jul-16 01:00N 55°59' W 003°11'0 0.4
2019-Jul-16 00:30N 55°59' W 003°11'1 2.4
2019-Jul-15 23:57N 56°00' W 003°10'3 6.9
2019-Jul-15 23:30N 56°02' W 003°05'3 6.9
2019-Jul-15 23:00N 56°03' W 002°59'3 5.1
2019-Jul-15 22:30N 56°04' W 002°55'3 6.5
2019-Jul-15 22:00N 56°06' W 002°50'3 6.6
2019-Jul-15 21:30N 56°07' W 002°44'4 7.0
2019-Jul-15 21:00N 56°08' W 002°38'4 8.3
2019-Jul-15 20:30N 56°09' W 002°31'6 9.9
2019-Jul-15 19:54N 56°14' W 002°26'410.3
2019-Jul-15 19:30N 56°17' W 002°21'510.2
2019-Jul-15 19:00N 56°21' W 002°15'810.1
2019-Jul-15 18:11N 56°28' W 002°07'210.3
2019-Jul-15 17:58N 56°30' W 002°07'3410.5
2019-Jul-15 14:43N 57°04' W 002°04'1 4.0
2019-Jul-15 14:30N 57°05' W 002°03'2 4.7
2019-Jul-15 14:00N 57°06' W 001°60'2 4.2
2019-Jul-15 13:30N 57°08' W 001°58'4 7.2
2019-Jul-15 13:00N 57°08' W 002°04'1 1.3
2019-Jul-15 12:30N 57°09' W 002°05'0 0.0
2019-Jul-15 11:59N 57°09' W 002°05'0 0.0
2019-Jul-15 11:29N 57°09' W 002°05'0 0.0
2019-Jul-15 10:55N 57°09' W 002°05'0 0.0
2019-Jul-15 10:28N 57°09' W 002°05'0 0.0
2019-Jul-15 09:58N 57°09' W 002°05'0 0.0
2019-Jul-15 09:28N 57°09' W 002°05'0 0.0
2019-Jul-15 08:55N 57°09' W 002°05'0 0.0
2019-Jul-15 08:28N 57°09' W 002°05'0 0.0
2019-Jul-15 07:58N 57°09' W 002°05'0 0.0
2019-Jul-15 07:28N 57°09' W 002°05'0 0.3
2019-Jul-15 07:00N 57°09' W 002°05'2 3.9
2019-Jul-15 06:31N 57°10' W 002°02'0 0.3
2019-Jul-15 06:01N 57°09' W 002°02'3 5.4
2019-Jul-15 05:30N 57°11' W 001°58'3 6.0
2019-Jul-15 05:01N 57°12' W 001°53'4 6.7
2019-Jul-15 04:29N 57°15' W 001°49'4 8.5
2019-Jul-15 04:00N 57°19' W 001°46'4 8.9
2019-Jul-15 03:31N 57°23' W 001°44'5 9.3
2019-Jul-15 03:01N 57°27' W 001°41'4 7.3
2019-Jul-15 02:31N 57°31' W 001°39'4 7.8
2019-Jul-15 02:00N 57°35' W 001°40'4 8.0
2019-Jul-15 01:30N 57°39' W 001°42'64 2.3
2019-Jul-13 21:25N 58°31' W 002°52'510.3
2019-Jul-13 20:58N 58°35' W 002°48'4 9.7
2019-Jul-13 20:30N 58°39' W 002°44'1010.8
2019-Jul-13 19:34N 58°49' W 002°36'111.7
2019-Jul-13 19:29N 58°49' W 002°36'910.5
2019-Jul-13 18:37N 58°59' W 002°37'212.1
2019-Jul-13 18:28N 58°59' W 002°40'611.7
2019-Jul-13 18:00N 59°01' W 002°50'4 7.8
2019-Jul-13 17:30N 58°60' W 002°58'0 0.6
2019-Jul-13 16:58N 59°00' W 002°58'0 0.0
2019-Jul-13 16:28N 59°00' W 002°58'0 0.0
2019-Jul-13 15:58N 59°00' W 002°58'0 0.0
2019-Jul-13 15:28N 59°00' W 002°58'0 0.0
2019-Jul-13 14:58N 59°00' W 002°58'0 0.0
2019-Jul-13 14:28N 59°00' W 002°58'0 0.0
2019-Jul-13 13:58N 59°00' W 002°58'0 0.0
2019-Jul-13 13:28N 59°00' W 002°58'0 0.0
2019-Jul-13 12:58N 59°00' W 002°58'0 0.0
2019-Jul-13 12:28N 59°00' W 002°58'0 0.0
2019-Jul-13 11:58N 59°00' W 002°58'1 1.3
2019-Jul-13 11:30N 59°00' W 002°57'4 7.6
2019-Jul-13 10:59N 59°01' W 002°50'3 5.8
2019-Jul-13 10:30N 59°02' W 002°45'4 8.2
2019-Jul-13 10:00N 59°06' W 002°46'4 7.6
2019-Jul-13 09:30N 59°09' W 002°50'3 5.7
2019-Jul-13 09:00N 59°11' W 002°53'4 7.0
2019-Jul-13 08:30N 59°13' W 002°59'4 7.1
2019-Jul-13 08:00N 59°14' W 003°06'3 5.9
2019-Jul-13 07:30N 59°13' W 003°11'3 5.8
2019-Jul-13 07:00N 59°13' W 003°17'3 6.1
2019-Jul-13 06:26N 59°11' W 003°23'3 7.2
2019-Jul-13 05:59N 59°10' W 003°28'3 7.0
2019-Jul-13 05:30N 59°08' W 003°34'3 7.0
2019-Jul-13 05:00N 59°06' W 003°40'4 7.1
2019-Jul-13 04:30N 59°04' W 003°46'4 7.7
2019-Jul-13 04:00N 59°02' W 003°52'5 9.8
2019-Jul-13 03:30N 59°00' W 004°01'611.0
2019-Jul-13 03:00N 58°57' W 004°10'510.9
2019-Jul-13 02:30N 58°54' W 004°19'510.8
2019-Jul-13 02:00N 58°52' W 004°28'73 5.1
2019-Jul-12 11:40N 57°49' W 005°39'122 3.6
2019-Jul-11 01:36N 55°51' W 006°39'0 3.4
2019-Jul-11 01:30N 55°51' W 006°39'2 3.7
2019-Jul-11 01:01N 55°49' W 006°40'2 4.1
2019-Jul-11 00:28N 55°47' W 006°40'2 4.7
2019-Jul-11 00:00N 55°45' W 006°41'3 5.1
2019-Jul-10 23:31N 55°42' W 006°42'3 5.3
2019-Jul-10 23:00N 55°40' W 006°43'3 5.2
2019-Jul-10 22:30N 55°37' W 006°44'3 5.0
2019-Jul-10 22:00N 55°35' W 006°45'2 4.9
2019-Jul-10 21:30N 55°32' W 006°46'3 4.8
2019-Jul-10 20:58N 55°30' W 006°47'3 4.6
2019-Jul-10 20:24N 55°27' W 006°48'2 5.3
2019-Jul-10 19:56N 55°25' W 006°49'5 5.0
2019-Jul-10 18:53N 55°20' W 006°51'3 5.0
2019-Jul-10 18:22N 55°17' W 006°51'2 0.1
2019-Jul-10 05:24N 55°15' W 006°50'3 6.0
2019-Jul-10 04:56N 55°17' W 006°46'2 3.8
2019-Jul-10 04:31N 55°17' W 006°43'3 5.0
2019-Jul-10 04:01N 55°18' W 006°39'3 6.3
2019-Jul-10 03:30N 55°20' W 006°34'3 6.2
2019-Jul-10 03:01N 55°21' W 006°30'3 5.4
2019-Jul-10 02:30N 55°23' W 006°25'3 5.5
2019-Jul-10 02:00N 55°24' W 006°21'3 5.6
2019-Jul-10 01:30N 55°25' W 006°16'3 5.5
2019-Jul-10 01:00N 55°25' W 006°12'3 5.8
2019-Jul-10 00:30N 55°25' W 006°07'3 5.7
2019-Jul-10 00:00N 55°23' W 006°02'3 6.5
2019-Jul-09 23:30N 55°21' W 005°59'4 7.3
2019-Jul-09 23:00N 55°18' W 005°55'4 7.7
2019-Jul-09 22:30N 55°14' W 005°51'4 8.2
2019-Jul-09 22:00N 55°11' W 005°48'4 8.2
2019-Jul-09 21:30N 55°07' W 005°45'3 5.8
2019-Jul-09 20:59N 55°05' W 005°42'14 7.8
2019-Jul-09 19:10N 54°51' W 005°35'1 8.7
2019-Jul-09 19:00N 54°49' W 005°35'4 8.2
2019-Jul-09 18:30N 54°45' W 005°37'510.4
2019-Jul-09 18:01N 54°42' W 005°43'510.6
2019-Jul-09 17:30N 54°39' W 005°51'3 6.3
2019-Jul-09 16:58N 54°37' W 005°55'0 0.0
2019-Jul-09 16:26N 54°37' W 005°55'0 0.0
2019-Jul-09 15:58N 54°37' W 005°55'0 0.0
2019-Jul-09 15:29N 54°37' W 005°55'0 0.0
2019-Jul-09 14:58N 54°37' W 005°55'0 0.0
2019-Jul-09 14:28N 54°37' W 005°55'0 0.0
2019-Jul-09 13:58N 54°37' W 005°55'0 0.0
2019-Jul-09 13:28N 54°37' W 005°55'0 0.0
2019-Jul-09 12:58N 54°37' W 005°55'0 0.0
2019-Jul-09 12:28N 54°37' W 005°55'0 0.0
2019-Jul-09 11:58N 54°37' W 005°55'0 0.0
2019-Jul-09 11:28N 54°37' W 005°55'0 0.0
2019-Jul-09 10:55N 54°37' W 005°55'0 0.0
2019-Jul-09 10:28N 54°37' W 005°55'0 0.0
2019-Jul-09 09:58N 54°37' W 005°55'0 0.0
2019-Jul-09 09:28N 54°37' W 005°55'0 0.0
2019-Jul-09 08:58N 54°37' W 005°55'0 0.0
2019-Jul-09 08:28N 54°37' W 005°55'0 0.0
2019-Jul-09 07:58N 54°37' W 005°55'0 0.0
2019-Jul-09 07:28N 54°37' W 005°55'0 0.0
2019-Jul-09 06:58N 54°37' W 005°55'0 0.0
2019-Jul-09 06:28N 54°37' W 005°55'0 0.0
2019-Jul-09 05:58N 54°37' W 005°55'0 0.0
2019-Jul-09 05:28N 54°37' W 005°55'0 0.0
2019-Jul-09 04:58N 54°37' W 005°55'0 0.0
2019-Jul-09 04:28N 54°37' W 005°55'0 0.0
2019-Jul-09 03:58N 54°37' W 005°55'0 0.0
2019-Jul-09 03:28N 54°37' W 005°55'0 0.0
2019-Jul-09 02:58N 54°37' W 005°55'0 0.0
2019-Jul-09 02:28N 54°37' W 005°55'0 0.0
2019-Jul-09 01:58N 54°37' W 005°55'0 0.0
2019-Jul-09 01:28N 54°37' W 005°55'0 0.0
2019-Jul-09 00:58N 54°37' W 005°55'0 0.0
2019-Jul-09 00:28N 54°37' W 005°55'0 0.0
2019-Jul-08 23:58N 54°37' W 005°55'0 0.0
2019-Jul-08 23:28N 54°37' W 005°55'0 0.0
2019-Jul-08 22:58N 54°37' W 005°55'0 0.0
2019-Jul-08 22:28N 54°37' W 005°55'0 0.0
2019-Jul-08 21:58N 54°37' W 005°55'0 0.0
2019-Jul-08 21:28N 54°37' W 005°55'0 0.0
2019-Jul-08 20:58N 54°37' W 005°55'0 0.0
2019-Jul-08 20:28N 54°37' W 005°55'0 0.0
2019-Jul-08 19:58N 54°37' W 005°55'0 0.0
2019-Jul-08 19:28N 54°37' W 005°55'0 0.0
2019-Jul-08 18:58N 54°37' W 005°55'0 0.0
2019-Jul-08 18:28N 54°37' W 005°55'0 0.0
2019-Jul-08 17:58N 54°37' W 005°55'0 0.0
2019-Jul-08 17:28N 54°37' W 005°55'0 0.0
2019-Jul-08 16:58N 54°37' W 005°55'0 0.0
2019-Jul-08 16:28N 54°37' W 005°55'0 0.0
2019-Jul-08 15:58N 54°37' W 005°55'0 0.0
2019-Jul-08 15:28N 54°37' W 005°55'0 0.0
2019-Jul-08 14:58N 54°37' W 005°55'0 0.0
2019-Jul-08 14:28N 54°37' W 005°55'0 0.0
2019-Jul-08 13:58N 54°37' W 005°55'0 0.0
2019-Jul-08 13:28N 54°37' W 005°55'0 0.0
2019-Jul-08 12:58N 54°37' W 005°55'0 0.0
2019-Jul-08 12:28N 54°37' W 005°55'0 0.0
2019-Jul-08 11:58N 54°37' W 005°55'0 0.0
2019-Jul-08 11:28N 54°37' W 005°55'0 0.0
2019-Jul-08 10:58N 54°37' W 005°55'0 0.0
2019-Jul-08 10:28N 54°37' W 005°55'0 0.0
2019-Jul-08 09:58N 54°37' W 005°55'0 0.0
2019-Jul-08 09:28N 54°37' W 005°55'0 0.0
2019-Jul-08 08:58N 54°37' W 005°55'0 0.0
2019-Jul-08 08:28N 54°37' W 005°55'0 0.0
2019-Jul-08 07:58N 54°37' W 005°55'0 0.0
2019-Jul-08 07:28N 54°37' W 005°55'0 0.4
2019-Jul-08 07:01N 54°37' W 005°55'3 4.9
2019-Jul-08 06:29N 54°39' W 005°52'510.2
2019-Jul-08 06:00N 54°42' W 005°45'4 8.2
2019-Jul-08 05:31N 54°43' W 005°38'3 5.6
2019-Jul-08 05:01N 54°43' W 005°34'3 5.6
2019-Jul-08 04:30N 54°43' W 005°29'3 6.2
2019-Jul-08 04:01N 54°41' W 005°26'3 6.5
2019-Jul-08 03:31N 54°37' W 005°24'3 6.5
2019-Jul-08 03:00N 54°34' W 005°23'4 7.7
2019-Jul-08 02:30N 54°31' W 005°21'5 9.7
2019-Jul-08 02:01N 54°26' W 005°20'5 9.3
2019-Jul-08 01:30N 54°21' W 005°21'510.0
2019-Jul-08 01:01N 54°17' W 005°23'510.1
2019-Jul-08 00:31N 54°12' W 005°27'510.4
2019-Jul-08 00:01N 54°07' W 005°30'610.6
2019-Jul-07 23:25N 54°01' W 005°33'510.7
2019-Jul-07 22:56N 53°56' W 005°36'510.6
2019-Jul-07 22:30N 53°52' W 005°38'610.0
2019-Jul-07 21:54N 53°46' W 005°41'22 7.2
2019-Jul-07 18:46N 53°25' W 005°56'3 6.4
2019-Jul-07 18:19N 53°23' W 005°58'3 6.4
2019-Jul-07 17:54N 53°21' W 006°01'2 6.3
2019-Jul-07 17:31N 53°20' W 006°05'4 8.7
2019-Jul-07 17:00N 53°21' W 006°12'1 0.9
2019-Jul-07 16:12N 53°21' W 006°14'0 0.0
2019-Jul-07 16:00N 53°21' W 006°14'0 0.0
2019-Jul-07 15:30N 53°21' W 006°14'0 0.0
2019-Jul-07 15:00N 53°21' W 006°14'0 0.0
2019-Jul-07 14:30N 53°21' W 006°14'0 0.0
2019-Jul-07 13:57N 53°21' W 006°14'0 0.0
2019-Jul-07 13:21N 53°21' W 006°14'0 0.0
2019-Jul-07 12:45N 53°21' W 006°14'0 0.0
2019-Jul-07 12:30N 53°21' W 006°14'0 0.0
2019-Jul-07 12:00N 53°21' W 006°14'0 0.0
2019-Jul-07 11:27N 53°21' W 006°14'0 0.0
2019-Jul-07 10:54N 53°21' W 006°14'0 0.0
2019-Jul-07 10:24N 53°21' W 006°14'0 0.0
2019-Jul-07 09:54N 53°21' W 006°14'0 0.0
2019-Jul-07 09:18N 53°21' W 006°14'0 0.0
2019-Jul-07 08:45N 53°21' W 006°14'0 0.0
2019-Jul-07 08:30N 53°21' W 006°14'0 0.0
2019-Jul-07 08:00N 53°21' W 006°14'0 0.0
2019-Jul-07 07:30N 53°21' W 006°14'0 0.0
2019-Jul-07 07:00N 53°21' W 006°14'0 0.0
2019-Jul-07 06:24N 53°21' W 006°14'0 0.5
2019-Jul-07 06:00N 53°21' W 006°13'1 2.2
2019-Jul-07 05:30N 53°21' W 006°11'5 9.2
2019-Jul-07 05:00N 53°20' W 006°03'5 6.3
2019-Jul-07 04:14N 53°24' W 005°58'1 5.5
2019-Jul-07 04:00N 53°25' W 005°56'56 8.5
2019-Jul-06 21:21N 54°18' W 005°23'4 8.6
2019-Jul-06 20:55N 54°21' W 005°21'4 8.3
2019-Jul-06 20:28N 54°25' W 005°20'4 8.7
2019-Jul-06 20:00N 54°29' W 005°21'4 8.3
2019-Jul-06 19:30N 54°33' W 005°23'4 7.5
2019-Jul-06 19:00N 54°37' W 005°24'3 7.1
2019-Jul-06 18:30N 54°40' W 005°25'3 6.4
2019-Jul-06 18:00N 54°43' W 005°28'4 7.6
2019-Jul-06 17:30N 54°43' W 005°35'4 7.2
2019-Jul-06 17:00N 54°42' W 005°41'4 7.8
2019-Jul-06 16:30N 54°41' W 005°48'5 9.6
2019-Jul-06 16:00N 54°38' W 005°53'0 0.1
2019-Jul-06 15:29N 54°38' W 005°53'0 0.0
2019-Jul-06 14:59N 54°38' W 005°53'0 0.0
2019-Jul-06 14:29N 54°38' W 005°53'0 0.0
2019-Jul-06 13:59N 54°38' W 005°53'0 0.0
2019-Jul-06 13:30N 54°38' W 005°53'0 0.0
2019-Jul-06 12:59N 54°38' W 005°53'0 0.0
2019-Jul-06 12:29N 54°38' W 005°53'0 0.0
2019-Jul-06 11:59N 54°38' W 005°53'0 0.0
2019-Jul-06 11:29N 54°38' W 005°53'0 0.0
2019-Jul-06 10:59N 54°38' W 005°53'0 0.0
2019-Jul-06 10:29N 54°38' W 005°53'  

Dump ship's entire track history